Time;durP1;ratioP1;P1;durP2;ratioP2;P2;SDS_P1;SDS_P2;PMS_P1;PMS_P2;Temp;Humidity;BMP_temperature;BMP_pressure;BME280_temperature;BME280_humidity;BME280_pressure;Samples;Min_cycle;Max_cycle;Signal;HPM_P1;HPM_P2
2023/04/13 00:02:15;;;;;;;;;;;;;;;6.68;90.31;99885.69;20793317;28;19929;-55
2023/04/13 00:12:39;;;;;;;;;;;;;;;6.56;90.91;99866.31;20805254;28;19925;-54
2023/04/13 00:23:01;;;;;;;;;;;;;;;6.49;89.24;99851.97;20813918;28;20447;-55
2023/04/13 00:33:23;;;;;;;;;;;;;;;6.44;90.13;99846.13;20805326;28;19995;-55
2023/04/13 00:43:44;;;;;;;;;;;;;;;6.47;89.75;99815.19;20790473;28;19974;-55
2023/04/13 00:54:06;;;;;;;;;;;;;;;6.43;91.38;99823.06;20816752;28;19999;-55
2023/04/13 01:04:29;;;;;;;;;;;;;;;6.43;90.45;99798.19;20810107;28;20035;-55
2023/04/13 01:14:57;;;;;;;;;;;;;;;6.34;90.42;99777.06;20812244;28;19926;-55
2023/04/13 01:25:20;;;;;;;;;;;;;;;6.30;90.81;99776.31;20820451;28;19929;-55
2023/04/13 01:35:43;;;;;;;;;;;;;;;6.25;90.46;99762.78;20804475;28;19926;-55
2023/04/13 01:46:05;;;;;;;;;;;;;;;6.18;90.69;99758.72;20786549;28;19933;-55
2023/04/13 01:56:27;;;;;;;;;;;;;;;6.20;90.71;99758.66;20798464;28;19929;-55
2023/04/13 02:06:50;;;;;;;;;;;;;;;6.13;92.00;99763.97;20785854;28;19934;-54
2023/04/13 02:17:11;;;;;;;;;;;;;;;6.15;90.98;99745.97;20803570;28;19932;-55
2023/04/13 02:27:37;;;;;;;;;;;;;;;6.28;90.90;99752.41;20800981;28;19936;-54
2023/04/13 02:37:59;;;;;;;;;;;;;;;6.29;90.53;99751.53;20798943;28;19982;-55
2023/04/13 02:48:20;;;;;;;;;;;;;;;6.29;91.17;99741.25;20794035;28;20364;-55
2023/04/13 02:58:43;;;;;;;;;;;;;;;6.33;89.64;99745.41;20800940;28;19924;-55
2023/04/13 03:09:04;;;;;;;;;;;;;;;6.42;90.16;99745.13;20796995;28;19986;-54
2023/04/13 03:19:27;;;;;;;;;;;;;;;6.48;88.61;99737.25;20793813;28;19925;-55
2023/04/13 03:29:48;;;;;;;;;;;;;;;6.50;91.84;99722.59;20800250;28;19925;-54
2023/04/13 03:40:10;;;;;;;;;;;;;;;6.48;94.01;99714.13;20793426;28;19929;-55
2023/04/13 03:50:31;;;;;;;;;;;;;;;6.48;93.40;99708.97;20810009;28;19925;-55
2023/04/13 04:00:53;;;;;;;;;;;;;;;6.53;93.94;99696.81;20814838;28;20509;-55
2023/04/13 04:11:15;;;;;;;;;;;;;;;6.57;93.38;99692.44;20816292;28;19948;-55
2023/04/13 04:21:36;;;;;;;;;;;;;;;6.64;93.41;99696.47;20797557;28;19933;-55
2023/04/13 04:32:02;;;;;;;;;;;;;;;6.68;92.46;99698.91;20811485;28;19948;-55
2023/04/13 04:42:23;;;;;;;;;;;;;;;6.71;93.27;99698.78;20807497;28;19972;-54
2023/04/13 04:52:45;;;;;;;;;;;;;;;6.82;93.98;99699.28;20798608;28;19925;-55
2023/04/13 05:03:06;;;;;;;;;;;;;;;6.87;92.97;99704.25;20798550;28;19995;-55
2023/04/13 05:13:28;;;;;;;;;;;;;;;6.92;93.85;99705.78;20818621;28;19929;-55
2023/04/13 05:23:50;;;;;;;;;;;;;;;7.00;93.66;99719.25;20803581;28;19929;-55
2023/04/13 05:34:11;;;;;;;;;;;;;;;7.07;92.88;99723.28;20803187;28;19974;-55
2023/04/13 05:44:33;;;;;;;;;;;;;;;7.13;93.75;99725.66;20802747;28;19937;-55
2023/04/13 05:54:54;;;;;;;;;;;;;;;7.20;92.84;99746.03;20801374;28;20393;-54
2023/04/13 06:05:17;;;;;;;;;;;;;;;7.26;94.09;99781.81;20806451;28;19926;-54
2023/04/13 06:15:39;;;;;;;;;;;;;;;7.42;91.06;99782.97;20788737;28;19933;-55
2023/04/13 06:26:00;;;;;;;;;;;;;;;7.54;93.51;99808.31;20802806;28;19975;-55
2023/04/13 06:36:25;;;;;;;;;;;;;;;7.67;92.39;99818.13;20795209;28;19972;-55
2023/04/13 06:46:46;;;;;;;;;;;;;;;7.81;91.62;99833.94;20801996;28;19959;-55
2023/04/13 06:57:08;;;;;;;;;;;;;;;8.06;92.30;99855.38;20795515;28;20533;-55
2023/04/13 07:07:29;;;;;;;;;;;;;;;8.34;90.97;99862.97;20792371;28;19999;-55
2023/04/13 07:17:51;;;;;;;;;;;;;;;8.52;88.50;99882.06;20795574;28;19933;-55
2023/04/13 07:28:12;;;;;;;;;;;;;;;8.46;87.74;99888.28;20794521;28;19931;-54
2023/04/13 07:38:34;;;;;;;;;;;;;;;8.59;86.83;99902.41;20796306;28;19925;-55
2023/04/13 07:48:55;;;;;;;;;;;;;;;8.88;84.83;99909.91;20799494;28;19925;-55
2023/04/13 07:59:17;;;;;;;;;;;;;;;9.09;83.72;99919.41;20794417;28;20343;-55
2023/04/13 08:09:39;;;;;;;;;;;;;;;9.26;83.86;99934.25;20798289;28;19933;-55
2023/04/13 08:20:00;;;;;;;;;;;;;;;9.30;83.27;99953.03;20792953;28;19979;-55
2023/04/13 08:30:22;;;;;;;;;;;;;;;9.39;81.91;99960.44;20799971;28;20110;-55
2023/04/13 08:40:43;;;;;;;;;;;;;;;9.49;80.93;99979.81;20807664;28;20404;-55
2023/04/13 08:51:06;;;;;;;;;;;;;;;9.67;78.97;99999.75;20808736;28;20396;-55
2023/04/13 09:01:30;;;;;;;;;;;;;;;9.68;78.92;100024.69;20805944;28;20326;-55
2023/04/13 09:11:51;;;;;;;;;;;;;;;10.00;79.31;100019.06;20788986;28;19925;-55
2023/04/13 09:22:14;;;;;;;;;;;;;;;10.24;75.27;100037.94;20787556;28;20016;-55
2023/04/13 09:32:38;;;;;;;;;;;;;;;10.26;75.66;100036.09;20805342;28;20403;-55
2023/04/13 09:43:00;;;;;;;;;;;;;;;10.19;77.09;100050.19;20797822;28;19975;-55
2023/04/13 09:53:21;;;;;;;;;;;;;;;9.95;77.80;100093.34;20801652;28;19933;-56
2023/04/13 10:03:43;;;;;;;;;;;;;;;9.59;81.85;100102.53;20804008;28;19933;-55
2023/04/13 10:14:08;;;;;;;;;;;;;;;9.55;83.80;100108.69;20787694;28;19925;-54
2023/04/13 10:24:29;;;;;;;;;;;;;;;9.79;82.55;100107.78;20810933;28;19933;-55
2023/04/13 10:34:51;;;;;;;;;;;;;;;10.36;83.84;100100.34;20800781;28;20327;-55
2023/04/13 10:45:34;;;;;;;;;;;;;;;10.86;75.72;100106.81;20809118;28;19925;-55
2023/04/13 10:55:56;;;;;;;;;;;;;;;11.26;74.16;100120.63;20793543;28;20407;-55
2023/04/13 11:06:18;;;;;;;;;;;;;;;11.39;75.30;100152.84;20796980;28;20579;-55
2023/04/13 11:16:43;;;;;;;;;;;;;;;10.96;76.71;100187.50;20788675;28;19991;-55
2023/04/13 11:27:15;;;;;;;;;;;;;;;10.40;79.66;100199.31;20789693;28;19935;-55
2023/04/13 11:37:40;;;;;;;;;;;;;;;10.16;83.97;100231.28;20796741;28;19925;-55
2023/04/13 11:48:04;;;;;;;;;;;;;;;9.92;85.22;100253.69;20787867;28;20359;-55
2023/04/13 11:58:27;;;;;;;;;;;;;;;9.98;86.49;100258.66;20778291;28;19925;-55
2023/04/13 12:08:48;;;;;;;;;;;;;;;10.40;85.38;100257.03;20794050;28;19987;-55
2023/04/13 12:19:23;;;;;;;;;;;;;;;11.03;80.95;100264.00;20808846;28;20016;-55
2023/04/13 12:29:48;;;;;;;;;;;;;;;11.48;78.71;100281.97;20807531;28;19931;-55
2023/04/13 12:40:11;;;;;;;;;;;;;;;11.49;76.92;100294.88;20802301;28;19937;-55
2023/04/13 12:50:33;;;;;;;;;;;;;;;11.77;77.33;100310.97;20812387;28;20019;-55
2023/04/13 13:00:54;;;;;;;;;;;;;;;11.60;77.67;100328.09;20800683;28;19929;-55
2023/04/13 13:11:16;;;;;;;;;;;;;;;11.58;79.71;100350.63;20813953;28;19932;-55
2023/04/13 13:21:37;;;;;;;;;;;;;;;12.00;77.28;100328.09;20803243;28;20377;-55
2023/04/13 13:31:59;;;;;;;;;;;;;;;12.43;75.06;100338.25;20796458;28;20163;-54
2023/04/13 13:42:20;;;;;;;;;;;;;;;12.53;72.92;100356.81;20803079;28;20020;-54
2023/04/13 13:52:42;;;;;;;;;;;;;;;11.85;77.11;100403.94;20815561;28;20372;-55
2023/04/13 14:03:20;;;;;;;;;;;;;;;11.93;78.34;100414.84;20810342;28;20426;-55
2023/04/13 14:13:42;;;;;;;;;;;;;;;12.53;74.70;100432.94;20802113;28;20012;-55
2023/04/13 14:24:03;;;;;;;;;;;;;;;12.89;70.34;100426.06;20807350;28;19971;-55
2023/04/13 14:34:25;;;;;;;;;;;;;;;13.08;68.30;100452.09;20795889;28;19952;-55
2023/04/13 14:44:47;;;;;;;;;;;;;;;13.26;68.68;100450.41;20796235;28;19929;-55
2023/04/13 14:55:08;;;;;;;;;;;;;;;13.55;62.80;100457.66;20799424;28;19936;-56
2023/04/13 15:05:34;;;;;;;;;;;;;;;13.44;64.12;100470.31;20789166;28;19925;-55
2023/04/13 15:15:56;;;;;;;;;;;;;;;13.96;64.56;100485.91;20794746;28;19925;-56
2023/04/13 15:26:18;;;;;;;;;;;;;;;13.43;64.36;100502.41;20792102;28;19981;-56
2023/04/13 15:36:39;;;;;;;;;;;;;;;13.07;65.67;100526.56;20805967;28;19928;-56
2023/04/13 15:47:01;;;;;;;;;;;;;;;13.01;66.55;100542.41;20812577;28;19959;-55
2023/04/13 15:57:23;;;;;;;;;;;;;;;12.87;67.76;100557.75;20816707;28;20450;-55
2023/04/13 16:07:45;;;;;;;;;;;;;;;12.97;68.70;100574.63;20812635;28;19930;-55
2023/04/13 16:18:06;;;;;;;;;;;;;;;13.16;67.65;100573.84;20815395;28;19973;-55
2023/04/13 16:28:28;;;;;;;;;;;;;;;13.04;64.58;100586.47;20812419;28;19948;-54
2023/04/13 16:38:51;;;;;;;;;;;;;;;12.99;67.77;100609.16;20794946;28;19929;-55
2023/04/13 16:49:13;;;;;;;;;;;;;;;12.82;66.89;100637.59;20805879;28;19930;-56
2023/04/13 16:59:34;;;;;;;;;;;;;;;12.82;67.65;100647.13;20802341;28;20292;-53
2023/04/13 17:09:56;;;;;;;;;;;;;;;12.92;66.44;100659.69;20800015;28;19933;-56
2023/04/13 17:20:17;;;;;;;;;;;;;;;12.84;65.12;100687.72;20802333;28;19924;-56
2023/04/13 17:30:39;;;;;;;;;;;;;;;12.65;68.17;100706.72;20794757;28;19925;-56
2023/04/13 17:41:00;;;;;;;;;;;;;;;12.51;66.20;100709.00;20806010;28;20078;-55
2023/04/13 17:51:22;;;;;;;;;;;;;;;12.28;67.67;100728.09;20804122;28;19936;-56
2023/04/13 18:01:43;;;;;;;;;;;;;;;12.21;68.95;100762.97;20804005;28;20075;-56
2023/04/13 18:12:05;;;;;;;;;;;;;;;12.00;71.33;100774.13;20811774;28;19925;-56
2023/04/13 18:22:27;;;;;;;;;;;;;;;11.78;73.19;100797.41;20812120;28;19925;-55
2023/04/13 18:32:50;;;;;;;;;;;;;;;11.43;74.48;100813.28;20801227;28;19932;-56
2023/04/13 18:43:11;;;;;;;;;;;;;;;11.19;75.23;100841.75;20795754;28;20012;-55
2023/04/13 18:53:33;;;;;;;;;;;;;;;10.93;76.43;100858.94;20797679;28;19929;-56
2023/04/13 19:03:54;;;;;;;;;;;;;;;10.70;76.39;100874.34;20799370;28;20351;-55
2023/04/13 19:14:16;;;;;;;;;;;;;;;10.42;77.08;100872.59;20797077;28;20251;-55
2023/04/13 19:24:37;;;;;;;;;;;;;;;10.27;77.76;100881.66;20801955;28;19932;-55
2023/04/13 19:34:59;;;;;;;;;;;;;;;10.05;77.44;100881.34;20798878;28;20277;-55
2023/04/13 19:45:20;;;;;;;;;;;;;;;9.93;78.40;100902.34;20779438;28;20583;-56
2023/04/13 19:55:42;;;;;;;;;;;;;;;9.79;78.75;100903.59;20795781;28;20380;-56
2023/04/13 20:06:03;;;;;;;;;;;;;;;9.62;79.27;100916.06;20792600;28;19932;-54
2023/04/13 20:16:25;;;;;;;;;;;;;;;9.55;79.78;100930.91;20807178;28;20032;-55
2023/04/13 20:26:47;;;;;;;;;;;;;;;9.44;80.08;100943.22;20804003;28;19940;-55
2023/04/13 20:37:09;;;;;;;;;;;;;;;9.33;79.96;100959.84;20815327;28;20450;-54
2023/04/13 20:47:30;;;;;;;;;;;;;;;9.25;80.20;100956.59;20804546;28;19929;-54
2023/04/13 20:57:52;;;;;;;;;;;;;;;9.05;80.54;100969.91;20809049;28;20029;-54
2023/04/13 21:08:13;;;;;;;;;;;;;;;8.98;80.64;100984.69;20805398;28;19929;-55
2023/04/13 21:18:35;;;;;;;;;;;;;;;8.88;80.37;100987.50;20797600;28;19932;-56
2023/04/13 21:28:57;;;;;;;;;;;;;;;8.70;81.89;100999.03;20810138;28;19937;-54
2023/04/13 21:39:19;;;;;;;;;;;;;;;8.62;81.22;101000.94;20793478;28;19956;-55
2023/04/13 21:49:41;;;;;;;;;;;;;;;8.44;83.21;100998.66;20808198;28;20354;-54
2023/04/13 22:00:03;;;;;;;;;;;;;;;8.42;81.97;100984.97;20800965;28;20006;-55
2023/04/13 22:10:27;;;;;;;;;;;;;;;8.30;82.51;100981.75;20802727;28;19935;-55
2023/04/13 22:20:48;;;;;;;;;;;;;;;8.13;82.10;100979.44;20793305;28;20292;-55
2023/04/13 22:31:10;;;;;;;;;;;;;;;8.01;82.65;100996.00;20802446;28;19929;-54
2023/04/13 22:41:32;;;;;;;;;;;;;;;7.92;83.08;100995.28;20788713;28;19936;-55
2023/04/13 22:51:55;;;;;;;;;;;;;;;7.91;83.02;101009.88;20789586;28;20014;-55
2023/04/13 23:02:16;;;;;;;;;;;;;;;7.83;84.16;101006.59;20793305;28;19948;-55
2023/04/13 23:12:38;;;;;;;;;;;;;;;7.76;84.20;101032.47;20794091;28;19933;-55
2023/04/13 23:23:00;;;;;;;;;;;;;;;7.75;84.47;101044.50;20796442;28;19929;-55
2023/04/13 23:33:22;;;;;;;;;;;;;;;7.69;84.84;101048.91;20798887;28;20015;-55
2023/04/13 23:43:43;;;;;;;;;;;;;;;7.60;84.80;101031.84;20801144;28;20395;-55
2023/04/13 23:54:05;;;;;;;;;;;;;;;7.57;84.92;101043.91;20797458;28;19932;-55
